sensor_id;sensor_type;location;lat;lon;timestamp;pressure;altitude;pressure_sealevel;temperature;humidity
42001;BME280;27689;48.390;10.856;2023-04-28T00:01:22;96069.22;;;9.46;92.53
42001;BME280;27689;48.390;10.856;2023-04-28T00:04:06;96070.84;;;9.47;92.57
42001;BME280;27689;48.390;10.856;2023-04-28T00:06:50;96065.78;;;9.46;93.12
42001;BME280;27689;48.390;10.856;2023-04-28T00:09:34;96077.44;;;9.51;92.99
42001;BME280;27689;48.390;10.856;2023-04-28T00:12:18;96073.72;;;9.54;92.76
42001;BME280;27689;48.390;10.856;2023-04-28T00:15:02;96071.94;;;9.54;92.93
42001;BME280;27689;48.390;10.856;2023-04-28T00:17:47;96066.69;;;9.54;92.22
42001;BME280;27689;48.390;10.856;2023-04-28T00:20:31;96061.19;;;9.58;92.41
42001;BME280;27689;48.390;10.856;2023-04-28T00:23:15;96064.34;;;9.61;92.52
42001;BME280;27689;48.390;10.856;2023-04-28T00:25:59;96051.41;;;9.60;92.56
42001;BME280;27689;48.390;10.856;2023-04-28T00:28:43;96055.53;;;9.62;92.24
42001;BME280;27689;48.390;10.856;2023-04-28T00:31:27;96052.09;;;9.62;92.32
42001;BME280;27689;48.390;10.856;2023-04-28T00:34:11;96046.44;;;9.66;92.23
42001;BME280;27689;48.390;10.856;2023-04-28T00:36:57;96039.72;;;9.64;92.08
42001;BME280;27689;48.390;10.856;2023-04-28T00:39:41;96041.91;;;9.59;92.59
42001;BME280;27689;48.390;10.856;2023-04-28T00:42:25;96039.59;;;9.55;92.96
42001;BME280;27689;48.390;10.856;2023-04-28T00:45:09;96051.00;;;9.54;92.43
42001;BME280;27689;48.390;10.856;2023-04-28T00:47:54;96037.94;;;9.54;93.27
42001;BME280;27689;48.390;10.856;2023-04-28T00:50:39;96035.88;;;9.58;93.06
42001;BME280;27689;48.390;10.856;2023-04-28T00:53:23;96034.31;;;9.65;92.80
42001;BME280;27689;48.390;10.856;2023-04-28T00:56:07;96024.69;;;9.66;92.27
42001;BME280;27689;48.390;10.856;2023-04-28T00:58:51;96021.69;;;9.61;93.07
42001;BME280;27689;48.390;10.856;2023-04-28T01:01:35;96024.84;;;9.54;93.82
42001;BME280;27689;48.390;10.856;2023-04-28T01:04:20;96010.81;;;9.55;93.31
42001;BME280;27689;48.390;10.856;2023-04-28T01:07:03;96007.09;;;9.58;93.47
42001;BME280;27689;48.390;10.856;2023-04-28T01:09:48;95998.75;;;9.45;94.54
42001;BME280;27689;48.390;10.856;2023-04-28T01:12:32;95993.75;;;9.51;94.11
42001;BME280;27689;48.390;10.856;2023-04-28T01:15:18;95990.75;;;9.46;95.50
42001;BME280;27689;48.390;10.856;2023-04-28T01:18:02;95990.06;;;9.44;95.96
42001;BME280;27689;48.390;10.856;2023-04-28T01:20:46;95995.31;;;9.44;96.26
42001;BME280;27689;48.390;10.856;2023-04-28T01:23:30;95985.81;;;9.43;96.64
42001;BME280;27689;48.390;10.856;2023-04-28T01:26:14;95985.53;;;9.46;96.81
42001;BME280;27689;48.390;10.856;2023-04-28T01:28:58;95973.44;;;9.45;96.45
42001;BME280;27689;48.390;10.856;2023-04-28T01:31:42;95982.91;;;9.46;96.69
42001;BME280;27689;48.390;10.856;2023-04-28T01:34:26;95992.78;;;9.52;96.43
42001;BME280;27689;48.390;10.856;2023-04-28T01:37:10;95995.53;;;9.61;96.18
42001;BME280;27689;48.390;10.856;2023-04-28T01:39:54;96005.31;;;9.59;95.46
42001;BME280;27689;48.390;10.856;2023-04-28T01:42:38;96011.91;;;9.63;95.80
42001;BME280;27689;48.390;10.856;2023-04-28T01:45:22;96000.47;;;9.64;95.36
42001;BME280;27689;48.390;10.856;2023-04-28T01:48:05;96005.94;;;9.70;95.58
42001;BME280;27689;48.390;10.856;2023-04-28T01:50:50;96007.44;;;9.73;95.95
42001;BME280;27689;48.390;10.856;2023-04-28T01:53:34;96006.63;;;9.72;96.25
42001;BME280;27689;48.390;10.856;2023-04-28T01:56:18;96007.44;;;9.73;95.40
42001;BME280;27689;48.390;10.856;2023-04-28T01:59:02;96003.88;;;9.74;95.02
42001;BME280;27689;48.390;10.856;2023-04-28T02:01:46;95999.06;;;9.69;96.14
42001;BME280;27689;48.390;10.856;2023-04-28T02:04:30;95991.34;;;9.68;95.03
42001;BME280;27689;48.390;10.856;2023-04-28T02:07:13;95987.09;;;9.67;95.44
42001;BME280;27689;48.390;10.856;2023-04-28T02:09:58;95972.97;;;9.60;96.44
42001;BME280;27689;48.390;10.856;2023-04-28T02:12:41;95965.13;;;9.60;96.19
42001;BME280;27689;48.390;10.856;2023-04-28T02:15:25;95965.66;;;9.63;96.90
42001;BME280;27689;48.390;10.856;2023-04-28T02:18:10;95958.84;;;9.70;96.79
42001;BME280;27689;48.390;10.856;2023-04-28T02:20:54;95963.38;;;9.78;96.91
42001;BME280;27689;48.390;10.856;2023-04-28T02:23:38;95962.41;;;9.79;95.75
42001;BME280;27689;48.390;10.856;2023-04-28T02:26:22;95965.44;;;9.74;95.92
42001;BME280;27689;48.390;10.856;2023-04-28T02:29:07;95970.44;;;9.68;96.57
42001;BME280;27689;48.390;10.856;2023-04-28T02:31:51;95964.50;;;9.66;97.59
42001;BME280;27689;48.390;10.856;2023-04-28T02:34:35;95969.25;;;9.62;98.56
42001;BME280;27689;48.390;10.856;2023-04-28T02:37:19;95963.88;;;9.64;99.19
42001;BME280;27689;48.390;10.856;2023-04-28T02:40:03;95959.75;;;9.61;99.19
42001;BME280;27689;48.390;10.856;2023-04-28T02:42:48;95964.50;;;9.66;99.26
42001;BME280;27689;48.390;10.856;2023-04-28T02:45:31;95970.72;;;9.65;99.82
42001;BME280;27689;48.390;10.856;2023-04-28T02:48:16;95972.53;;;9.64;100.00
42001;BME280;27689;48.390;10.856;2023-04-28T02:51:00;95974.31;;;9.64;100.00
42001;BME280;27689;48.390;10.856;2023-04-28T02:53:44;95964.81;;;9.63;100.00
42001;BME280;27689;48.390;10.856;2023-04-28T02:56:29;95958.78;;;9.62;100.00
42001;BME280;27689;48.390;10.856;2023-04-28T02:59:13;95956.72;;;9.56;100.00
42001;BME280;27689;48.390;10.856;2023-04-28T03:01:57;95941.91;;;9.47;100.00
42001;BME280;27689;48.390;10.856;2023-04-28T03:04:41;95950.84;;;9.44;100.00
42001;BME280;27689;48.390;10.856;2023-04-28T03:07:25;95954.44;;;9.43;100.00
42001;BME280;27689;48.390;10.856;2023-04-28T03:10:09;95962.28;;;9.43;100.00
42001;BME280;27689;48.390;10.856;2023-04-28T03:12:53;95963.09;;;9.44;100.00
42001;BME280;27689;48.390;10.856;2023-04-28T03:15:37;95961.31;;;9.44;100.00
42001;BME280;27689;48.390;10.856;2023-04-28T03:18:21;95978.22;;;9.50;100.00
42001;BME280;27689;48.390;10.856;2023-04-28T03:21:05;95988.25;;;9.54;100.00
42001;BME280;27689;48.390;10.856;2023-04-28T03:23:49;95978.03;;;9.61;100.00
42001;BME280;27689;48.390;10.856;2023-04-28T03:26:33;95969.47;;;9.69;100.00
42001;BME280;27689;48.390;10.856;2023-04-28T03:29:17;95961.88;;;9.75;100.00
42001;BME280;27689;48.390;10.856;2023-04-28T03:32:01;95967.94;;;9.76;100.00
42001;BME280;27689;48.390;10.856;2023-04-28T03:34:45;95961.34;;;9.72;100.00
42001;BME280;27689;48.390;10.856;2023-04-28T03:37:30;95963.06;;;9.81;100.00
42001;BME280;27689;48.390;10.856;2023-04-28T03:40:14;95951.94;;;9.79;100.00
42001;BME280;27689;48.390;10.856;2023-04-28T03:42:58;95948.53;;;9.69;100.00
42001;BME280;27689;48.390;10.856;2023-04-28T03:45:42;95942.25;;;9.62;100.00
42001;BME280;27689;48.390;10.856;2023-04-28T03:48:26;95939.19;;;9.66;100.00
42001;BME280;27689;48.390;10.856;2023-04-28T03:51:10;95951.56;;;9.74;100.00
42001;BME280;27689;48.390;10.856;2023-04-28T03:53:54;95922.50;;;9.77;100.00
42001;BME280;27689;48.390;10.856;2023-04-28T03:56:38;95924.66;;;9.81;100.00
42001;BME280;27689;48.390;10.856;2023-04-28T03:59:23;95923.81;;;9.81;100.00
42001;BME280;27689;48.390;10.856;2023-04-28T04:02:07;95926.16;;;9.84;100.00
42001;BME280;27689;48.390;10.856;2023-04-28T04:04:51;95929.16;;;9.89;100.00
42001;BME280;27689;48.390;10.856;2023-04-28T04:07:35;95927.22;;;9.91;100.00
42001;BME280;27689;48.390;10.856;2023-04-28T04:10:19;95932.16;;;9.94;100.00
42001;BME280;27689;48.390;10.856;2023-04-28T04:13:03;95926.97;;;9.84;100.00
42001;BME280;27689;48.390;10.856;2023-04-28T04:15:47;95923.75;;;9.73;100.00
42001;BME280;27689;48.390;10.856;2023-04-28T04:18:32;95933.38;;;9.72;100.00
42001;BME280;27689;48.390;10.856;2023-04-28T04:21:17;95933.66;;;9.69;100.00
42001;BME280;27689;48.390;10.856;2023-04-28T04:24:01;95935.84;;;9.74;100.00
42001;BME280;27689;48.390;10.856;2023-04-28T04:26:45;95935.31;;;9.70;100.00
42001;BME280;27689;48.390;10.856;2023-04-28T04:29:29;95943.69;;;9.74;100.00
42001;BME280;27689;48.390;10.856;2023-04-28T04:32:13;95944.13;;;9.69;100.00
42001;BME280;27689;48.390;10.856;2023-04-28T04:34:57;95926.41;;;9.63;100.00
42001;BME280;27689;48.390;10.856;2023-04-28T04:37:41;95941.38;;;9.71;100.00
42001;BME280;27689;48.390;10.856;2023-04-28T04:40:25;95941.28;;;9.63;100.00
42001;BME280;27689;48.390;10.856;2023-04-28T04:43:09;95940.53;;;9.70;100.00
42001;BME280;27689;48.390;10.856;2023-04-28T04:45:53;95952.22;;;9.76;100.00
42001;BME280;27689;48.390;10.856;2023-04-28T04:48:37;95949.16;;;9.80;100.00
42001;BME280;27689;48.390;10.856;2023-04-28T04:51:22;95947.81;;;9.76;100.00
42001;BME280;27689;48.390;10.856;2023-04-28T04:54:05;95949.06;;;9.72;100.00
42001;BME280;27689;48.390;10.856;2023-04-28T04:56:50;95953.09;;;9.67;100.00
42001;BME280;27689;48.390;10.856;2023-04-28T04:59:34;95949.41;;;9.60;100.00
42001;BME280;27689;48.390;10.856;2023-04-28T05:02:18;95950.53;;;9.57;100.00
42001;BME280;27689;48.390;10.856;2023-04-28T05:05:02;95941.16;;;9.54;100.00
42001;BME280;27689;48.390;10.856;2023-04-28T05:07:48;95946.53;;;9.53;100.00
42001;BME280;27689;48.390;10.856;2023-04-28T05:10:32;95943.94;;;9.53;100.00
42001;BME280;27689;48.390;10.856;2023-04-28T05:13:17;95937.03;;;9.52;100.00
42001;BME280;27689;48.390;10.856;2023-04-28T05:16:01;95943.66;;;9.56;100.00
42001;BME280;27689;48.390;10.856;2023-04-28T05:18:45;95937.19;;;9.50;100.00
42001;BME280;27689;48.390;10.856;2023-04-28T05:21:29;95954.16;;;9.46;100.00
42001;BME280;27689;48.390;10.856;2023-04-28T05:24:13;95976.13;;;9.53;100.00
42001;BME280;27689;48.390;10.856;2023-04-28T05:26:58;95960.72;;;9.50;100.00
42001;BME280;27689;48.390;10.856;2023-04-28T05:29:42;95949.63;;;9.39;100.00
42001;BME280;27689;48.390;10.856;2023-04-28T05:32:26;95951.31;;;9.30;100.00
42001;BME280;27689;48.390;10.856;2023-04-28T05:35:10;95940.88;;;9.30;100.00
42001;BME280;27689;48.390;10.856;2023-04-28T05:37:55;95947.06;;;9.29;100.00
42001;BME280;27689;48.390;10.856;2023-04-28T05:40:39;95952.28;;;9.29;100.00
42001;BME280;27689;48.390;10.856;2023-04-28T05:43:22;95942.78;;;9.28;100.00
42001;BME280;27689;48.390;10.856;2023-04-28T05:46:06;95948.44;;;9.33;100.00
42001;BME280;27689;48.390;10.856;2023-04-28T05:48:50;95936.47;;;9.31;100.00
42001;BME280;27689;48.390;10.856;2023-04-28T05:51:34;95923.13;;;9.34;100.00
42001;BME280;27689;48.390;10.856;2023-04-28T05:54:18;95932.44;;;9.36;100.00
42001;BME280;27689;48.390;10.856;2023-04-28T05:57:02;95928.84;;;9.37;100.00
42001;BME280;27689;48.390;10.856;2023-04-28T05:59:46;95928.03;;;9.37;100.00
42001;BME280;27689;48.390;10.856;2023-04-28T06:02:30;95937.38;;;9.49;100.00
42001;BME280;27689;48.390;10.856;2023-04-28T06:05:14;95933.72;;;9.60;100.00
42001;BME280;27689;48.390;10.856;2023-04-28T06:07:58;95936.44;;;9.68;100.00
42001;BME280;27689;48.390;10.856;2023-04-28T06:10:42;95929.25;;;9.70;100.00
42001;BME280;27689;48.390;10.856;2023-04-28T06:13:26;95937.72;;;9.81;100.00
42001;BME280;27689;48.390;10.856;2023-04-28T06:16:10;95932.06;;;9.86;100.00
42001;BME280;27689;48.390;10.856;2023-04-28T06:18:54;95924.31;;;9.94;100.00
42001;BME280;27689;48.390;10.856;2023-04-28T06:21:38;95921.25;;;9.99;100.00
42001;BME280;27689;48.390;10.856;2023-04-28T06:24:22;95926.09;;;10.11;100.00
42001;BME280;27689;48.390;10.856;2023-04-28T06:27:06;95924.59;;;10.18;100.00
42001;BME280;27689;48.390;10.856;2023-04-28T06:29:50;95918.75;;;10.24;100.00
42001;BME280;27689;48.390;10.856;2023-04-28T06:32:34;95916.34;;;10.31;100.00
42001;BME280;27689;48.390;10.856;2023-04-28T06:35:18;95919.50;;;10.35;100.00
42001;BME280;27689;48.390;10.856;2023-04-28T06:38:02;95911.19;;;10.39;100.00
42001;BME280;27689;48.390;10.856;2023-04-28T06:40:47;95911.72;;;10.43;100.00
42001;BME280;27689;48.390;10.856;2023-04-28T06:43:31;95917.72;;;10.53;100.00
42001;BME280;27689;48.390;10.856;2023-04-28T06:46:16;95927.84;;;10.56;100.00
42001;BME280;27689;48.390;10.856;2023-04-28T06:49:00;95932.66;;;10.60;100.00
42001;BME280;27689;48.390;10.856;2023-04-28T06:51:44;95934.31;;;10.62;100.00
42001;BME280;27689;48.390;10.856;2023-04-28T06:54:28;95944.00;;;10.69;100.00
42001;BME280;27689;48.390;10.856;2023-04-28T06:57:12;95940.50;;;10.78;100.00
42001;BME280;27689;48.390;10.856;2023-04-28T06:59:56;95940.03;;;10.83;100.00
42001;BME280;27689;48.390;10.856;2023-04-28T07:02:40;95942.97;;;10.80;100.00
42001;BME280;27689;48.390;10.856;2023-04-28T07:05:24;95942.00;;;10.81;100.00
42001;BME280;27689;48.390;10.856;2023-04-28T07:08:08;95949.72;;;10.82;100.00
42001;BME280;27689;48.390;10.856;2023-04-28T07:10:56;95945.78;;;10.86;100.00
42001;BME280;27689;48.390;10.856;2023-04-28T07:13:40;95945.47;;;10.89;100.00
42001;BME280;27689;48.390;10.856;2023-04-28T07:16:24;95935.59;;;10.83;100.00
42001;BME280;27689;48.390;10.856;2023-04-28T07:19:08;95930.69;;;10.80;100.00
42001;BME280;27689;48.390;10.856;2023-04-28T07:21:52;95918.19;;;10.74;100.00
42001;BME280;27689;48.390;10.856;2023-04-28T07:24:36;95915.56;;;10.74;100.00
42001;BME280;27689;48.390;10.856;2023-04-28T07:27:20;95914.59;;;10.75;100.00
42001;BME280;27689;48.390;10.856;2023-04-28T07:30:04;95908.81;;;10.72;100.00
42001;BME280;27689;48.390;10.856;2023-04-28T07:32:49;95909.78;;;10.71;100.00
42001;BME280;27689;48.390;10.856;2023-04-28T07:35:32;95902.09;;;10.69;100.00
42001;BME280;27689;48.390;10.856;2023-04-28T07:38:17;95904.09;;;10.75;100.00
42001;BME280;27689;48.390;10.856;2023-04-28T07:41:03;95895.28;;;10.76;100.00
42001;BME280;27689;48.390;10.856;2023-04-28T07:43:47;95889.59;;;10.81;100.00
42001;BME280;27689;48.390;10.856;2023-04-28T07:46:31;95881.09;;;10.87;100.00
42001;BME280;27689;48.390;10.856;2023-04-28T07:49:16;95890.97;;;10.93;100.00
42001;BME280;27689;48.390;10.856;2023-04-28T07:52:00;95889.16;;;10.93;100.00
42001;BME280;27689;48.390;10.856;2023-04-28T07:54:45;95893.78;;;11.00;100.00
42001;BME280;27689;48.390;10.856;2023-04-28T07:57:29;95901.63;;;11.00;100.00
42001;BME280;27689;48.390;10.856;2023-04-28T08:00:13;95897.59;;;11.05;100.00
42001;BME280;27689;48.390;10.856;2023-04-28T08:02:57;95887.09;;;11.05;100.00
42001;BME280;27689;48.390;10.856;2023-04-28T08:05:42;95886.97;;;11.07;100.00
42001;BME280;27689;48.390;10.856;2023-04-28T08:08:29;95875.50;;;11.08;100.00
42001;BME280;27689;48.390;10.856;2023-04-28T08:11:12;95869.31;;;11.17;100.00
42001;BME280;27689;48.390;10.856;2023-04-28T08:13:57;95859.47;;;11.19;100.00
42001;BME280;27689;48.390;10.856;2023-04-28T08:16:43;95851.66;;;11.27;100.00
42001;BME280;27689;48.390;10.856;2023-04-28T08:19:29;95847.28;;;11.36;100.00
42001;BME280;27689;48.390;10.856;2023-04-28T08:22:13;95849.09;;;11.43;100.00
42001;BME280;27689;48.390;10.856;2023-04-28T08:24:57;95845.84;;;11.49;100.00
42001;BME280;27689;48.390;10.856;2023-04-28T08:27:41;95850.31;;;11.57;100.00
42001;BME280;27689;48.390;10.856;2023-04-28T08:30:26;95851.44;;;11.62;100.00
42001;BME280;27689;48.390;10.856;2023-04-28T08:33:09;95849.81;;;11.61;100.00
42001;BME280;27689;48.390;10.856;2023-04-28T08:35:54;95851.16;;;11.65;100.00
42001;BME280;27689;48.390;10.856;2023-04-28T08:38:38;95860.00;;;11.73;100.00
42001;BME280;27689;48.390;10.856;2023-04-28T08:41:22;95852.13;;;11.64;100.00
42001;BME280;27689;48.390;10.856;2023-04-28T08:44:08;95853.28;;;11.70;100.00
42001;BME280;27689;48.390;10.856;2023-04-28T08:46:55;95845.91;;;11.74;100.00
42001;BME280;27689;48.390;10.856;2023-04-28T08:49:40;95835.78;;;11.79;100.00
42001;BME280;27689;48.390;10.856;2023-04-28T08:52:25;95838.44;;;11.87;100.00
42001;BME280;27689;48.390;10.856;2023-04-28T08:55:10;95843.34;;;11.90;100.00
42001;BME280;27689;48.390;10.856;2023-04-28T08:57:55;95840.59;;;11.99;100.00
42001;BME280;27689;48.390;10.856;2023-04-28T09:00:40;95836.47;;;12.05;100.00
42001;BME280;27689;48.390;10.856;2023-04-28T09:03:25;95837.81;;;12.09;100.00
42001;BME280;27689;48.390;10.856;2023-04-28T09:06:09;95840.59;;;12.08;100.00
42001;BME280;27689;48.390;10.856;2023-04-28T09:08:53;95836.81;;;12.10;100.00
42001;BME280;27689;48.390;10.856;2023-04-28T09:11:52;95844.69;;;12.18;100.00
42001;BME280;27689;48.390;10.856;2023-04-28T09:14:38;95835.34;;;12.16;100.00
42001;BME280;27689;48.390;10.856;2023-04-28T09:17:23;95834.84;;;12.20;100.00
42001;BME280;27689;48.390;10.856;2023-04-28T09:20:19;95830.56;;;12.19;100.00
42001;BME280;27689;48.390;10.856;2023-04-28T09:23:15;95839.78;;;12.15;100.00
42001;BME280;27689;48.390;10.856;2023-04-28T09:26:06;95836.81;;;12.18;100.00
42001;BME280;27689;48.390;10.856;2023-04-28T09:28:50;95832.91;;;12.14;100.00
42001;BME280;27689;48.390;10.856;2023-04-28T09:31:34;95844.69;;;12.18;100.00
42001;BME280;27689;48.390;10.856;2023-04-28T09:34:23;95840.25;;;12.19;100.00
42001;BME280;27689;48.390;10.856;2023-04-28T09:37:21;95838.81;;;12.16;100.00
42001;BME280;27689;48.390;10.856;2023-04-28T09:40:07;95818.09;;;12.05;100.00
42001;BME280;27689;48.390;10.856;2023-04-28T09:42:52;95835.34;;;12.16;100.00
42001;BME280;27689;48.390;10.856;2023-04-28T09:45:38;95839.13;;;12.21;100.00
42001;BME280;27689;48.390;10.856;2023-04-28T09:48:33;95837.78;;;12.17;100.00
42001;BME280;27689;48.390;10.856;2023-04-28T09:51:19;95854.72;;;12.23;100.00
42001;BME280;27689;48.390;10.856;2023-04-28T09:54:04;95853.09;;;12.30;100.00
42001;BME280;27689;48.390;10.856;2023-04-28T09:56:49;95849.47;;;12.23;100.00
42001;BME280;27689;48.390;10.856;2023-04-28T09:59:34;95854.56;;;12.24;100.00
42001;BME280;27689;48.390;10.856;2023-04-28T10:02:19;95845.69;;;12.33;100.00
42001;BME280;27689;48.390;10.856;2023-04-28T10:05:05;95842.59;;;12.30;100.00
42001;BME280;27689;48.390;10.856;2023-04-28T10:07:53;95834.53;;;12.15;100.00
42001;BME280;27689;48.390;10.856;2023-04-28T10:10:38;95844.88;;;12.25;100.00
42001;BME280;27689;48.390;10.856;2023-04-28T10:13:23;95841.94;;;12.28;100.00
42001;BME280;27689;48.390;10.856;2023-04-28T10:16:07;95847.34;;;12.26;100.00
42001;BME280;27689;48.390;10.856;2023-04-28T10:18:52;95849.28;;;12.32;100.00
42001;BME280;27689;48.390;10.856;2023-04-28T10:21:42;95845.84;;;12.40;100.00
42001;BME280;27689;48.390;10.856;2023-04-28T10:24:31;95847.84;;;12.46;100.00
42001;BME280;27689;48.390;10.856;2023-04-28T10:27:16;95843.56;;;12.53;100.00
42001;BME280;27689;48.390;10.856;2023-04-28T10:35:56;95846.19;;;12.53;100.00
42001;BME280;27689;48.390;10.856;2023-04-28T10:39:09;95854.88;;;12.54;100.00
42001;BME280;27689;48.390;10.856;2023-04-28T10:41:54;95852.91;;;12.56;100.00
42001;BME280;27689;48.390;10.856;2023-04-28T10:44:40;95864.75;;;12.60;100.00
42001;BME280;27689;48.390;10.856;2023-04-28T10:47:24;95863.41;;;12.64;100.00
42001;BME280;27689;48.390;10.856;2023-04-28T10:50:08;95869.81;;;12.69;100.00
42001;BME280;27689;48.390;10.856;2023-04-28T10:52:54;95869.00;;;12.69;100.00
42001;BME280;27689;48.390;10.856;2023-04-28T10:55:38;95862.28;;;12.58;100.00
42001;BME280;27689;48.390;10.856;2023-04-28T10:58:29;95866.38;;;12.53;100.00
42001;BME280;27689;48.390;10.856;2023-04-28T11:04:06;95866.72;;;12.58;100.00
42001;BME280;27689;48.390;10.856;2023-04-28T11:07:09;95868.34;;;12.67;100.00
42001;BME280;27689;48.390;10.856;2023-04-28T11:09:54;95860.13;;;12.86;100.00
42001;BME280;27689;48.390;10.856;2023-04-28T11:16:04;95856.16;;;12.90;100.00
42001;BME280;27689;48.390;10.856;2023-04-28T11:18:56;95852.53;;;12.99;100.00
42001;BME280;27689;48.390;10.856;2023-04-28T11:21:46;95852.31;;;13.09;100.00
42001;BME280;27689;48.390;10.856;2023-04-28T11:24:31;95840.50;;;13.13;100.00
42001;BME280;27689;48.390;10.856;2023-04-28T11:27:22;95839.97;;;13.34;100.00
42001;BME280;27689;48.390;10.856;2023-04-28T11:30:22;95838.88;;;13.51;100.00
42001;BME280;27689;48.390;10.856;2023-04-28T11:33:08;95836.09;;;13.53;100.00
42001;BME280;27689;48.390;10.856;2023-04-28T11:35:52;95826.84;;;13.65;100.00
42001;BME280;27689;48.390;10.856;2023-04-28T11:38:43;95831.28;;;13.64;100.00
42001;BME280;27689;48.390;10.856;2023-04-28T11:41:27;95825.63;;;13.75;100.00
42001;BME280;27689;48.390;10.856;2023-04-28T11:46:59;95839.34;;;13.94;100.00
42001;BME280;27689;48.390;10.856;2023-04-28T11:49:44;95847.81;;;14.04;100.00
42001;BME280;27689;48.390;10.856;2023-04-28T11:52:29;95853.56;;;14.07;100.00
42001;BME280;27689;48.390;10.856;2023-04-28T11:55:15;95842.63;;;14.19;100.00
42001;BME280;27689;48.390;10.856;2023-04-28T11:58:20;95841.28;;;14.23;100.00
42001;BME280;27689;48.390;10.856;2023-04-28T12:01:10;95848.72;;;14.19;100.00
42001;BME280;27689;48.390;10.856;2023-04-28T12:03:55;95844.09;;;14.21;100.00
42001;BME280;27689;48.390;10.856;2023-04-28T12:06:39;95852.56;;;14.31;100.00
42001;BME280;27689;48.390;10.856;2023-04-28T12:09:24;95847.97;;;14.25;100.00
42001;BME280;27689;48.390;10.856;2023-04-28T12:12:11;95849.25;;;14.37;100.00
42001;BME280;27689;48.390;10.856;2023-04-28T12:15:02;95853.00;;;14.43;100.00
42001;BME280;27689;48.390;10.856;2023-04-28T12:17:50;95838.31;;;14.49;100.00
42001;BME280;27689;48.390;10.856;2023-04-28T12:20:36;95846.94;;;14.57;100.00
42001;BME280;27689;48.390;10.856;2023-04-28T12:23:33;95847.88;;;14.64;100.00
42001;BME280;27689;48.390;10.856;2023-04-28T12:26:24;95840.34;;;14.76;100.00
42001;BME280;27689;48.390;10.856;2023-04-28T12:29:09;95840.25;;;14.69;100.00
42001;BME280;27689;48.390;10.856;2023-04-28T12:31:53;95858.66;;;14.77;100.00
42001;BME280;27689;48.390;10.856;2023-04-28T12:34:39;95852.44;;;14.70;100.00
42001;BME280;27689;48.390;10.856;2023-04-28T12:37:23;95856.09;;;14.46;100.00
42001;BME280;27689;48.390;10.856;2023-04-28T12:40:08;95855.13;;;14.39;100.00
42001;BME280;27689;48.390;10.856;2023-04-28T12:42:52;95857.00;;;14.31;100.00
42001;BME280;27689;48.390;10.856;2023-04-28T12:45:36;95853.88;;;14.35;100.00
42001;BME280;27689;48.390;10.856;2023-04-28T12:48:21;95865.34;;;14.42;100.00
42001;BME280;27689;48.390;10.856;2023-04-28T12:51:06;95859.94;;;14.36;100.00
42001;BME280;27689;48.390;10.856;2023-04-28T12:53:51;95856.50;;;14.35;100.00
42001;BME280;27689;48.390;10.856;2023-04-28T12:56:35;95858.78;;;14.38;100.00
42001;BME280;27689;48.390;10.856;2023-04-28T12:59:20;95857.84;;;14.31;100.00
42001;BME280;27689;48.390;10.856;2023-04-28T13:02:04;95858.84;;;14.30;100.00
42001;BME280;27689;48.390;10.856;2023-04-28T13:04:48;95866.53;;;14.40;100.00
42001;BME280;27689;48.390;10.856;2023-04-28T13:07:32;95863.38;;;14.44;100.00
42001;BME280;27689;48.390;10.856;2023-04-28T13:10:17;95869.94;;;14.49;100.00
42001;BME280;27689;48.390;10.856;2023-04-28T13:13:01;95847.06;;;14.41;100.00
42001;BME280;27689;48.390;10.856;2023-04-28T13:15:45;95850.06;;;14.38;100.00
42001;BME280;27689;48.390;10.856;2023-04-28T13:18:30;95850.84;;;14.46;100.00
42001;BME280;27689;48.390;10.856;2023-04-28T13:21:14;95841.84;;;14.56;100.00
42001;BME280;27689;48.390;10.856;2023-04-28T13:23:59;95840.59;;;14.52;100.00
42001;BME280;27689;48.390;10.856;2023-04-28T13:26:43;95826.31;;;14.61;100.00
42001;BME280;27689;48.390;10.856;2023-04-28T13:29:27;95836.81;;;14.69;100.00
42001;BME280;27689;48.390;10.856;2023-04-28T13:32:11;95823.63;;;14.69;100.00
42001;BME280;27689;48.390;10.856;2023-04-28T13:34:55;95828.69;;;14.70;100.00
42001;BME280;27689;48.390;10.856;2023-04-28T13:37:39;95820.09;;;14.76;100.00
42001;BME280;27689;48.390;10.856;2023-04-28T13:40:28;95808.06;;;14.74;100.00
42001;BME280;27689;48.390;10.856;2023-04-28T13:43:13;95818.63;;;14.89;100.00
42001;BME280;27689;48.390;10.856;2023-04-28T13:45:57;95810.84;;;14.95;100.00
42001;BME280;27689;48.390;10.856;2023-04-28T13:48:41;95813.84;;;15.07;100.00
42001;BME280;27689;48.390;10.856;2023-04-28T13:51:25;95811.38;;;15.05;100.00
42001;BME280;27689;48.390;10.856;2023-04-28T13:54:11;95811.84;;;15.24;100.00
42001;BME280;27689;48.390;10.856;2023-04-28T13:56:55;95820.91;;;15.36;100.00
42001;BME280;27689;48.390;10.856;2023-04-28T13:59:40;95813.34;;;15.47;100.00
42001;BME280;27689;48.390;10.856;2023-04-28T14:02:24;95821.09;;;15.49;100.00
42001;BME280;27689;48.390;10.856;2023-04-28T14:05:09;95819.19;;;15.43;100.00
42001;BME280;27689;48.390;10.856;2023-04-28T14:07:55;95808.00;;;15.41;100.00
42001;BME280;27689;48.390;10.856;2023-04-28T14:10:39;95815.53;;;15.29;100.00
42001;BME280;27689;48.390;10.856;2023-04-28T14:13:23;95813.84;;;15.22;100.00
42001;BME280;27689;48.390;10.856;2023-04-28T14:16:10;95817.81;;;15.17;100.00
42001;BME280;27689;48.390;10.856;2023-04-28T14:18:54;95816.00;;;15.03;100.00
42001;BME280;27689;48.390;10.856;2023-04-28T14:21:38;95799.34;;;15.03;100.00
42001;BME280;27689;48.390;10.856;2023-04-28T14:24:23;95825.75;;;15.03;100.00
42001;BME280;27689;48.390;10.856;2023-04-28T14:27:07;95811.25;;;14.99;100.00
42001;BME280;27689;48.390;10.856;2023-04-28T14:29:50;95810.66;;;14.97;100.00
42001;BME280;27689;48.390;10.856;2023-04-28T14:32:35;95812.09;;;14.99;100.00